Time;durP1;ratioP1;P1;durP2;ratioP2;P2;SDS_P1;SDS_P2;PMS_P1;PMS_P2;Temp;Humidity;BMP_temperature;BMP_pressure;BME280_temperature;BME280_humidity;BME280_pressure;Samples;Min_cycle;Max_cycle;Signal;HPM_P1;HPM_P2
2022/06/05 00:00:29;;;;;;;24.13;8.43;;;;;;;20.98;64.29;95137.75;5017116;28;20033;-81
2022/06/05 00:02:57;;;;;;;16.27;7.90;;;;;;;20.98;64.08;95137.75;5016788;28;20030;-82
2022/06/05 00:05:52;;;;;;;34.22;8.77;;;;;;;20.98;64.17;95136.94;5034950;28;20036;-82
2022/06/05 00:08:59;;;;;;;19.20;7.68;;;;;;;20.96;64.36;95141.75;5030498;28;20079;-84
2022/06/05 00:11:25;;;;;;;29.65;7.78;;;;;;;20.92;64.30;95143.41;5025529;28;20056;-82
2022/06/05 00:13:52;;;;;;;19.95;7.32;;;;;;;20.88;64.42;95140.56;5000204;28;20116;-82
2022/06/05 00:16:21;;;;;;;11.98;6.55;;;;;;;20.86;64.42;95142.72;4990179;28;20030;-81
2022/06/05 00:18:46;;;;;;;11.30;6.68;;;;;;;20.82;64.56;95140.91;5016299;28;20485;-82
2022/06/05 00:21:12;;;;;;;17.77;7.15;;;;;;;20.77;64.53;95144.44;5000215;28;20167;-81
2022/06/05 00:23:38;;;;;;;22.67;7.32;;;;;;;20.70;65.01;95141.38;4992509;28;20120;-81
2022/06/05 00:26:33;;;;;;;10.65;6.88;;;;;;;20.64;65.32;95145.13;5015770;28;20025;-82
2022/06/05 00:29:35;;;;;;;18.08;7.25;;;;;;;20.62;65.48;95142.00;5042000;28;20045;-81
2022/06/05 00:32:10;;;;;;;12.05;6.22;;;;;;;20.58;65.54;95148.94;5040239;28;20026;-79
2022/06/05 00:34:36;;;;;;;19.00;7.15;;;;;;;20.56;65.54;95154.50;5039235;28;20041;-80
2022/06/05 00:37:38;;;;;;;14.80;7.07;;;;;;;20.53;65.56;95159.59;5015610;28;20048;-80
2022/06/05 00:40:25;;;;;;;22.02;7.13;;;;;;;20.53;65.67;95160.38;4997114;28;20041;-81
2022/06/05 00:42:50;;;;;;;14.48;7.00;;;;;;;20.53;65.85;95159.59;5032063;28;20037;-81
2022/06/05 00:45:16;;;;;;;10.77;6.72;;;;;;;20.56;65.87;95156.38;4998639;28;20045;-81
2022/06/05 00:47:41;;;;;;;16.27;6.95;;;;;;;20.58;65.72;95151.59;5013972;28;20033;-81
2022/06/05 00:50:17;;;;;;;16.90;7.65;;;;;;;20.55;65.85;95149.50;4998699;28;20041;-81
2022/06/05 00:52:48;;;;;;;21.05;7.03;;;;;;;20.55;65.91;95157.44;5014627;28;20033;-81
2022/06/05 00:55:14;;;;;;;14.13;6.93;;;;;;;20.55;65.76;95152.94;4999815;28;20133;-81
2022/06/05 00:57:39;;;;;;;13.27;7.25;;;;;;;20.56;65.74;95151.09;4982301;28;20034;-81
2022/06/05 01:00:15;;;;;;;19.77;7.13;;;;;;;20.56;65.55;95149.22;4998178;28;20037;-80
2022/06/05 01:02:42;;;;;;;15.93;7.07;;;;;;;20.55;65.52;95144.22;5032243;28;20030;-81
2022/06/05 01:05:09;;;;;;;16.30;6.63;;;;;;;20.59;65.69;95153.16;4998399;28;20048;-82
2022/06/05 01:07:34;;;;;;;19.38;7.25;;;;;;;20.59;65.77;95147.88;4981748;28;20026;-81
2022/06/05 01:09:59;;;;;;;20.30;7.60;;;;;;;20.56;65.90;95151.09;5032775;28;20043;-81
2022/06/05 01:12:56;;;;;;;17.58;7.07;;;;;;;20.51;66.04;95151.16;5016637;28;20029;-81
2022/06/05 01:15:43;;;;;;;19.73;7.40;;;;;;;20.47;66.09;95144.84;5017473;28;20030;-81
2022/06/05 01:18:24;;;;;;;14.50;6.93;;;;;;;20.44;66.21;95148.06;5001006;28;20033;-81
2022/06/05 01:21:07;;;;;;;15.57;6.63;;;;;;;20.39;66.29;95149.69;5016856;28;20040;-81
2022/06/05 01:23:43;;;;;;;14.43;7.22;;;;;;;20.35;66.24;95151.34;5018239;28;20117;-81
2022/06/05 01:26:21;;;;;;;13.50;7.03;;;;;;;20.31;66.73;95147.69;5034139;28;20040;-81
2022/06/05 01:29:09;;;;;;;15.77;7.25;;;;;;;20.27;66.85;95146.69;5030799;28;20424;-81
2022/06/05 01:31:39;;;;;;;13.90;7.35;;;;;;;20.27;66.96;95148.53;5014024;28;20033;-81
2022/06/05 01:34:10;;;;;;;12.65;7.30;;;;;;;20.23;67.35;95150.97;4997877;28;20484;-81
2022/06/05 01:36:39;;;;;;;18.98;7.05;;;;;;;20.19;66.95;95149.97;5031821;28;20033;-84
2022/06/05 01:39:10;;;;;;;16.70;7.43;;;;;;;20.16;66.80;95147.88;5014829;28;20042;-81
2022/06/05 01:41:41;;;;;;;13.13;7.18;;;;;;;20.16;66.83;95152.38;4998969;28;20041;-82
2022/06/05 01:44:09;;;;;;;17.88;7.15;;;;;;;20.13;67.18;95156.38;5002550;28;20097;-82
2022/06/05 01:46:36;;;;;;;13.07;6.95;;;;;;;20.11;67.14;95152.44;5002734;28;20111;-81
2022/06/05 01:49:22;;;;;;;11.68;7.28;;;;;;;20.06;67.06;95156.72;5010637;28;20049;-81
2022/06/05 01:51:56;;;;;;;14.13;6.82;;;;;;;20.08;67.16;95154.59;5005940;28;20037;-81
2022/06/05 01:54:35;;;;;;;11.25;7.15;;;;;;;20.09;67.29;95150.09;5036693;28;20030;-81
2022/06/05 01:57:00;;;;;;;11.20;7.75;;;;;;;20.05;67.25;95144.59;5003519;28;20029;-82
2022/06/05 01:59:39;;;;;;;13.40;7.03;;;;;;;20.04;67.29;95147.50;5001430;28;20571;-81
2022/06/05 02:02:05;;;;;;;18.42;7.45;;;;;;;20.02;67.09;95147.00;5018973;28;20048;-81
2022/06/05 02:04:42;;;;;;;21.42;7.18;;;;;;;19.99;67.57;95143.06;5002473;28;20056;-81
2022/06/05 02:07:25;;;;;;;16.75;7.15;;;;;;;19.98;67.61;95140.72;5003631;28;20030;-81
2022/06/05 02:09:55;;;;;;;16.60;6.68;;;;;;;19.94;67.65;95139.72;5018640;28;20120;-80
2022/06/05 02:12:20;;;;;;;12.02;7.28;;;;;;;19.93;67.59;95140.78;5002784;28;20103;-80
2022/06/05 02:14:46;;;;;;;14.43;7.25;;;;;;;19.90;67.58;95143.97;4986702;28;20045;-80
2022/06/05 02:19:38;;;;;;;14.95;7.07;;;;;;;19.83;68.35;95144.31;5063813;22;20049;-81
2022/06/05 02:22:09;;;;;;;15.73;7.25;;;;;;;19.84;67.84;95137.19;5274879;22;20045;-82
2022/06/05 02:24:35;;;;;;;14.27;7.57;;;;;;;19.82;67.99;95134.81;5020466;28;20033;-80
2022/06/05 02:27:01;;;;;;;18.58;7.90;;;;;;;19.81;68.00;95148.31;5028881;28;20045;-81
2022/06/05 02:29:27;;;;;;;15.60;7.60;;;;;;;19.81;67.85;95143.81;4991835;28;20528;-81
2022/06/05 02:32:04;;;;;;;11.57;7.57;;;;;;;19.80;68.00;95142.22;5001757;28;20069;-81
2022/06/05 02:35:01;;;;;;;14.10;7.10;;;;;;;19.81;68.18;95143.03;5017988;28;20115;-80
2022/06/05 02:37:54;;;;;;;10.60;6.88;;;;;;;19.75;68.48;95140.44;5053554;23;20118;-81
2022/06/05 02:40:37;;;;;;;12.07;7.07;;;;;;;19.72;68.28;95124.41;5056042;28;20400;-80
2022/06/05 02:43:07;;;;;;;13.57;7.25;;;;;;;19.72;68.57;95135.75;5089311;22;20049;-81
2022/06/05 02:46:04;;;;;;;11.10;6.68;;;;;;;19.68;68.37;95129.44;5033238;28;20049;-81
2022/06/05 02:51:02;;;;;;;16.08;7.25;;;;;;;19.68;68.38;95124.16;5077932;22;20072;-81
2022/06/05 02:53:27;;;;;;;23.58;7.55;;;;;;;19.71;68.14;95128.09;5052442;28;20035;-82
2022/06/05 02:55:53;;;;;;;20.70;8.02;;;;;;;19.70;68.38;95116.75;5052584;28;20029;-81
2022/06/05 02:58:19;;;;;;;23.58;8.00;;;;;;;19.73;68.24;95126.75;5054023;28;20025;-82
2022/06/05 03:03:28;;;;;;;19.63;8.15;;;;;;;19.75;69.02;95119.34;5055621;28;20043;-82
2022/06/05 03:05:53;;;;;;;19.27;7.90;;;;;;;19.81;67.84;95127.19;5059719;28;20037;-81
2022/06/05 03:08:22;;;;;;;22.65;8.55;;;;;;;19.81;68.16;95124.53;5042840;28;20028;-80
2022/06/05 03:10:47;;;;;;;13.43;7.00;;;;;;;19.74;68.34;95130.97;5043149;28;20037;-81
2022/06/05 03:13:13;;;;;;;18.15;8.10;;;;;;;19.75;68.20;95140.44;5055009;28;20029;-81
2022/06/05 03:15:42;;;;;;;23.80;8.68;;;;;;;19.77;68.17;95137.53;5054107;28;20024;-81
2022/06/05 03:18:07;;;;;;;22.45;8.07;;;;;;;19.81;68.18;95135.09;5054607;28;20047;-82
2022/06/05 03:20:33;;;;;;;16.48;7.78;;;;;;;19.86;68.11;95140.34;5055010;28;20025;-82
2022/06/05 03:22:59;;;;;;;18.45;7.50;;;;;;;19.90;67.58;95138.72;5037032;28;20040;-82
2022/06/05 03:25:25;;;;;;;15.45;8.02;;;;;;;19.95;67.53;95138.63;5052661;28;20473;-81
2022/06/05 03:27:50;;;;;;;24.67;7.72;;;;;;;20.04;67.23;95144.88;5068624;22;20134;-81
2022/06/05 03:30:16;;;;;;;14.23;7.93;;;;;;;20.10;66.94;95138.44;5078620;22;20044;-81
2022/06/05 03:32:42;;;;;;;14.77;8.27;;;;;;;20.17;66.88;95138.88;5064040;22;20041;-82
2022/06/05 03:35:08;;;;;;;22.58;8.45;;;;;;;20.25;66.82;95148.81;5055053;28;20120;-81
2022/06/05 03:39:58;;;;;;;16.35;7.75;;;;;;;20.49;66.31;95158.56;5071067;22;20080;-81
2022/06/05 03:42:24;;;;;;;16.40;8.00;;;;;;;20.59;65.43;95153.16;5053922;22;20055;-81
2022/06/05 03:44:49;;;;;;;12.88;7.70;;;;;;;20.62;65.04;95147.28;5054869;28;20045;-81
2022/06/05 03:47:15;;;;;;;15.38;7.65;;;;;;;20.67;63.32;95149.88;5042925;28;20042;-81
2022/06/05 03:49:40;;;;;;;11.93;6.93;;;;;;;20.84;62.54;95152.78;5034459;28;20049;-81
2022/06/05 03:52:06;;;;;;;13.73;7.43;;;;;;;21.00;62.33;95139.34;5016850;28;20025;-81
2022/06/05 03:54:33;;;;;;;15.18;7.65;;;;;;;21.20;61.81;95153.00;5017773;28;20030;-82
2022/06/05 03:56:59;;;;;;;17.05;6.82;;;;;;;21.42;61.66;95160.31;5000804;28;20029;-82
2022/06/05 03:59:24;;;;;;;16.33;7.15;;;;;;;21.61;61.57;95162.13;5018145;28;20040;-82
2022/06/05 04:01:50;;;;;;;16.38;7.57;;;;;;;22.17;60.66;95165.31;5006622;28;20029;-82
2022/06/05 04:04:15;;;;;;;16.05;6.85;;;;;;;23.66;56.11;95160.84;5018654;28;20050;-82
2022/06/05 04:06:41;;;;;;;15.00;6.57;;;;;;;25.30;50.80;95163.00;5034019;28;20021;-82
2022/06/05 04:09:07;;;;;;;12.57;6.07;;;;;;;26.74;46.42;95165.69;4999432;28;20063;-82
2022/06/05 04:11:33;;;;;;;15.32;5.75;;;;;;;28.04;43.56;95163.34;5015266;28;20104;-81
2022/06/05 04:13:59;;;;;;;16.30;5.90;;;;;;;29.31;39.89;95167.47;5033229;28;20040;-82
2022/06/05 04:16:26;;;;;;;10.63;6.20;;;;;;;30.36;37.54;95159.75;4999308;28;20030;-82
2022/06/05 04:18:52;;;;;;;10.55;5.68;;;;;;;31.27;35.11;95159.41;4999773;28;20029;-82
2022/06/05 04:21:25;;;;;;;15.55;5.70;;;;;;;32.27;34.66;95149.56;4982547;28;20669;-82
2022/06/05 04:23:51;;;;;;;12.98;5.43;;;;;;;33.35;32.35;95142.53;5016637;28;20038;-82
2022/06/05 04:26:21;;;;;;;13.50;5.93;;;;;;;34.24;30.72;95137.94;5037292;28;20036;-82
2022/06/05 04:28:47;;;;;;;19.30;5.90;;;;;;;35.19;29.89;95139.63;5026899;28;20041;-82
2022/06/05 04:31:22;;;;;;;16.17;5.88;;;;;;;35.97;28.52;95139.03;4994165;28;20485;-82
2022/06/05 04:33:48;;;;;;;18.80;5.63;;;;;;;36.68;26.53;95136.25;5037861;28;20057;-82
2022/06/05 04:36:13;;;;;;;10.32;5.60;;;;;;;37.52;25.53;95128.91;5049875;28;20092;-82
2022/06/05 04:38:39;;;;;;;8.80;4.72;;;;;;;38.14;24.55;95136.22;5014766;28;20033;-81
2022/06/05 04:41:04;;;;;;;10.77;5.00;;;;;;;38.92;23.29;95128.50;5047377;28;20040;-79
2022/06/05 04:43:30;;;;;;;11.75;5.00;;;;;;;39.51;23.11;95122.66;5021860;28;20064;-79
2022/06/05 04:45:56;;;;;;;15.93;4.70;;;;;;;40.26;22.13;95124.25;5025539;28;20040;-80
2022/06/05 04:48:21;;;;;;;9.95;4.63;;;;;;;40.75;21.00;95122.59;5019948;28;20052;-80
2022/06/05 04:50:47;;;;;;;12.73;5.10;;;;;;;41.34;20.64;95119.09;5016317;28;20022;-81
2022/06/05 04:53:13;;;;;;;19.27;4.63;;;;;;;41.92;19.85;95117.38;5033453;28;20084;-81
2022/06/05 04:55:39;;;;;;;10.35;4.78;;;;;;;42.52;18.83;95119.81;4983247;28;20053;-81
2022/06/05 04:58:05;;;;;;;9.85;5.50;;;;;;;43.11;18.77;95113.09;5002845;28;20057;-82
2022/06/05 05:00:31;;;;;;;24.98;5.03;;;;;;;43.55;18.59;95129.78;5038177;28;20037;-82
2022/06/05 05:02:56;;;;;;;11.48;4.45;;;;;;;44.03;17.88;95132.19;4983439;28;20072;-82
2022/06/05 05:05:22;;;;;;;6.30;4.53;;;;;;;44.29;17.77;95132.94;4999909;28;20029;-82
2022/06/05 05:07:47;;;;;;;13.38;4.93;;;;;;;44.65;17.47;95137.22;5015869;28;20142;-82
2022/06/05 05:10:13;;;;;;;11.68;3.60;;;;;;;45.12;16.37;95139.06;5033145;28;20547;-82
2022/06/05 05:12:39;;;;;;;9.60;4.20;;;;;;;45.15;16.42;95135.44;4999077;28;20037;-82
2022/06/05 05:15:05;;;;;;;8.07;3.60;;;;;;;45.45;15.83;95133.94;5032758;28;20026;-82
2022/06/05 05:17:31;;;;;;;11.00;4.28;;;;;;;45.75;15.87;95130.41;5030994;28;20149;-82
2022/06/05 05:19:58;;;;;;;9.80;4.25;;;;;;;46.42;15.59;95139.13;5032089;28;20556;-82
2022/06/05 05:22:24;;;;;;;9.02;4.22;;;;;;;47.01;15.01;95142.47;4986486;28;20039;-82
2022/06/05 05:24:49;;;;;;;12.90;4.75;;;;;;;47.64;14.72;95147.06;5036584;28;20029;-82
2022/06/05 05:27:15;;;;;;;13.55;6.32;;;;;;;48.06;13.94;95143.50;5036021;28;20540;-82
2022/06/05 05:29:40;;;;;;;12.48;5.85;;;;;;;48.45;13.93;95146.34;4986213;28;20026;-82
2022/06/05 05:32:08;;;;;;;16.60;6.22;;;;;;;48.96;13.83;95151.59;4986332;28;20033;-82
2022/06/05 05:34:33;;;;;;;10.90;4.80;;;;;;;49.36;13.25;95155.84;4994955;28;20049;-81
2022/06/05 05:36:59;;;;;;;17.90;4.88;;;;;;;49.67;13.39;95153.34;4985198;28;20038;-82
2022/06/05 05:42:10;;;;;;;13.10;4.28;;;;;;;50.33;13.00;95152.75;5006113;28;20107;-82
2022/06/05 05:44:41;;;;;;;12.85;3.75;;;;;;;50.65;12.73;95150.13;5035689;28;20477;-82
2022/06/05 05:47:10;;;;;;;11.77;4.07;;;;;;;50.80;12.54;95139.75;5034950;28;20108;-82
2022/06/05 05:49:35;;;;;;;24.83;4.68;;;;;;;50.95;12.39;95136.88;4994122;28;20036;-82
2022/06/05 05:52:02;;;;;;;11.70;4.53;;;;;;;51.24;12.14;95138.66;5035882;28;20033;-82
2022/06/05 05:54:27;;;;;;;17.65;5.43;;;;;;;51.45;12.28;95142.88;5017915;28;20033;-82
2022/06/05 05:56:53;;;;;;;12.80;5.47;;;;;;;51.72;11.77;95143.59;4984950;28;20099;-82
2022/06/05 05:59:19;;;;;;;19.13;5.35;;;;;;;51.90;11.93;95137.66;5001133;28;20044;-82
2022/06/05 06:01:45;;;;;;;14.45;5.63;;;;;;;51.98;11.97;95149.81;5102467;22;20824;-82
2022/06/05 06:04:11;;;;;;;13.65;4.97;;;;;;;52.04;11.31;95153.38;5035087;28;20072;-81
2022/06/05 06:06:36;;;;;;;11.27;5.18;;;;;;;52.11;11.48;95143.84;5017072;28;20037;-81
2022/06/05 06:09:03;;;;;;;16.95;4.65;;;;;;;52.42;11.16;95138.22;4986111;28;20037;-82
2022/06/05 06:11:29;;;;;;;11.35;4.07;;;;;;;52.70;10.89;95146.63;5018591;28;20087;-83
2022/06/05 06:13:54;;;;;;;18.33;4.07;;;;;;;52.15;11.17;95152.69;5015776;28;20033;-83
2022/06/05 06:16:20;;;;;;;14.32;4.10;;;;;;;52.28;11.49;95149.47;5015653;28;20042;-80
2022/06/05 06:18:45;;;;;;;6.53;3.58;;;;;;;52.29;11.21;95151.75;5016605;28;20111;-81
2022/06/05 06:21:11;;;;;;;8.38;3.45;;;;;;;51.76;11.43;95146.91;5034782;28;20037;-81
2022/06/05 06:23:36;;;;;;;7.78;4.03;;;;;;;51.86;11.72;95145.44;5000787;28;20065;-81
2022/06/05 06:26:06;;;;;;;9.80;4.43;;;;;;;51.51;11.62;95140.91;5001156;28;20033;-82
2022/06/05 06:28:31;;;;;;;15.20;4.22;;;;;;;51.02;11.98;95144.72;5034882;28;20493;-81
2022/06/05 06:30:57;;;;;;;9.00;4.28;;;;;;;50.95;12.06;95143.16;5000819;28;20052;-81
2022/06/05 06:33:22;;;;;;;11.43;4.07;;;;;;;50.53;12.32;95140.16;5035346;28;20455;-81
2022/06/05 06:35:48;;;;;;;12.10;4.45;;;;;;;50.25;13.28;95137.81;5025185;28;20049;-82
2022/06/05 06:38:14;;;;;;;16.85;4.28;;;;;;;50.03;13.06;95138.28;5032846;28;20029;-82
2022/06/05 06:40:40;;;;;;;11.88;3.85;;;;;;;49.77;13.19;95129.09;5038936;28;20097;-81
2022/06/05 06:43:05;;;;;;;10.02;3.85;;;;;;;49.63;13.33;95129.84;5035637;28;20072;-82
2022/06/05 06:45:31;;;;;;;9.40;3.80;;;;;;;49.82;13.65;95123.66;5017279;28;20037;-82
2022/06/05 06:47:56;;;;;;;11.85;3.78;;;;;;;49.49;13.41;95128.66;5000932;28;20030;-81
2022/06/05 06:50:22;;;;;;;8.15;3.78;;;;;;;49.36;14.25;95130.97;5000674;28;20103;-80
2022/06/05 06:52:48;;;;;;;12.15;4.38;;;;;;;48.75;14.90;95133.38;5017314;28;20038;-81
2022/06/05 06:55:16;;;;;;;11.18;4.10;;;;;;;49.22;14.34;95129.72;5034871;28;20489;-81
2022/06/05 06:57:42;;;;;;;8.98;3.72;;;;;;;48.52;14.87;95121.16;5000559;28;20033;-82
2022/06/05 07:00:08;;;;;;;7.07;3.70;;;;;;;48.03;15.04;95117.66;5036619;28;20083;-80
2022/06/05 07:02:33;;;;;;;11.23;3.33;;;;;;;47.76;15.44;95115.78;5048050;28;20448;-81
2022/06/05 07:04:59;;;;;;;11.02;3.60;;;;;;;47.10;15.90;95120.44;5008707;28;20037;-82
2022/06/05 07:07:25;;;;;;;7.85;3.50;;;;;;;46.35;16.67;95115.41;5036353;28;20025;-83
2022/06/05 07:09:50;;;;;;;22.73;4.03;;;;;;;45.44;17.76;95118.66;5002487;28;20054;-84
2022/06/05 07:12:17;;;;;;;9.52;3.13;;;;;;;44.82;18.13;95124.81;5019261;28;20025;-81
2022/06/05 07:14:43;;;;;;;10.13;3.50;;;;;;;44.25;18.32;95121.28;5039957;28;20106;-80
2022/06/05 07:17:09;;;;;;;17.42;3.55;;;;;;;43.54;19.14;95118.06;5012041;28;20085;-81
2022/06/05 07:19:35;;;;;;;14.50;3.83;;;;;;;42.57;20.52;95113.81;5040198;28;20053;-82
2022/06/05 07:22:00;;;;;;;10.73;3.40;;;;;;;41.92;21.28;95124.78;5035296;28;20029;-81
2022/06/05 07:24:26;;;;;;;8.70;3.72;;;;;;;41.22;22.16;95122.44;5034055;28;20389;-81
2022/06/05 07:26:52;;;;;;;20.92;4.03;;;;;;;40.63;23.49;95120.50;5016363;28;20526;-81
2022/06/05 07:29:18;;;;;;;8.55;3.90;;;;;;;39.97;24.12;95119.28;5033585;28;20512;-81
2022/06/05 07:31:43;;;;;;;12.52;3.80;;;;;;;39.39;24.74;95117.81;4999513;28;20037;-80
2022/06/05 07:34:09;;;;;;;7.97;4.00;;;;;;;38.90;25.41;95109.88;5015426;28;20025;-80
2022/06/05 07:36:44;;;;;;;7.43;3.78;;;;;;;38.49;26.22;95106.44;5032936;28;20030;-80
2022/06/05 07:39:09;;;;;;;19.10;4.03;;;;;;;37.84;26.64;95107.00;5032839;28;20037;-81
2022/06/05 07:41:39;;;;;;;15.15;4.47;;;;;;;37.23;27.89;95106.59;5015882;28;20044;-80
2022/06/05 07:44:05;;;;;;;9.55;3.53;;;;;;;36.89;27.33;95094.75;5014869;28;20037;-80
2022/06/05 07:46:31;;;;;;;10.73;4.00;;;;;;;36.42;28.45;95096.06;4998846;28;20076;-80
2022/06/05 07:48:56;;;;;;;10.40;4.43;;;;;;;35.99;28.87;95096.88;4997905;28;20044;-80
2022/06/05 07:54:34;;;;;;;13.80;4.45;;;;;;;35.44;30.34;95093.72;5022478;28;20037;-78
2022/06/05 07:57:04;;;;;;;12.20;3.70;;;;;;;35.24;31.27;95090.59;5019038;28;20056;-79
2022/06/05 07:59:33;;;;;;;13.60;4.47;;;;;;;35.17;30.90;95090.59;5017614;28;20037;-79
2022/06/05 08:02:03;;;;;;;8.55;4.15;;;;;;;35.06;30.97;95090.56;4998874;28;20586;-79
2022/06/05 08:04:29;;;;;;;15.00;4.30;;;;;;;34.76;30.90;95090.03;4999093;28;20029;-80
2022/06/05 08:06:57;;;;;;;18.48;4.30;;;;;;;34.60;31.53;95091.13;4999250;28;20038;-80
2022/06/05 08:09:22;;;;;;;8.70;4.75;;;;;;;34.38;31.30;95092.16;5016057;28;20065;-77
2022/06/05 08:11:48;;;;;;;12.48;4.65;;;;;;;34.32;31.27;95088.22;5015080;28;20067;-81
2022/06/05 08:14:16;;;;;;;32.33;5.35;;;;;;;34.22;33.08;95088.97;5030423;28;20017;-77
2022/06/05 08:16:46;;;;;;;15.15;4.50;;;;;;;34.03;31.92;95083.84;5000007;28;20025;-80
2022/06/05 08:19:12;;;;;;;13.63;5.25;;;;;;;33.76;32.47;95088.59;5002596;28;20037;-80
2022/06/05 08:21:39;;;;;;;9.18;5.32;;;;;;;33.50;32.72;95078.75;5005349;28;20033;-79
2022/06/05 08:24:05;;;;;;;16.15;5.38;;;;;;;33.38;32.83;95087.91;5004930;28;20029;-81
2022/06/05 08:26:31;;;;;;;11.45;6.68;;;;;;;33.29;32.27;95074.69;5014945;28;20028;-83
2022/06/05 08:28:56;;;;;;;11.40;5.57;;;;;;;33.33;32.63;95078.22;4983381;28;20041;-82
2022/06/05 08:31:22;;;;;;;7.95;3.97;;;;;;;33.38;32.60;95082.50;4997265;28;20087;-79
2022/06/05 08:33:47;;;;;;;19.67;4.97;;;;;;;33.48;32.74;95075.66;5030990;28;20034;-82
2022/06/05 08:36:12;;;;;;;19.65;4.95;;;;;;;33.58;32.78;95085.75;5012261;28;20504;-83
2022/06/05 08:41:28;;;;;;;15.90;4.45;;;;;;;33.51;32.17;95077.59;5016438;28;20107;-80
2022/06/05 08:44:20;;;;;;;9.95;3.58;;;;;;;33.50;31.35;95076.81;5032500;28;20033;-80
2022/06/05 08:46:53;;;;;;;;;;;;;;;33.34;32.08;95077.06;5036444;28;20457;-78
2022/06/05 08:49:36;;;;;;;11.02;3.70;;;;;;;33.27;32.32;95076.97;5036223;28;19921;-79
2022/06/05 08:52:17;;;;;;;19.15;4.20;;;;;;;33.33;31.58;95074.75;5034811;28;20037;-79
2022/06/05 08:54:56;;;;;;;7.03;4.00;;;;;;;33.33;32.00;95066.66;5030031;28;20029;-79
2022/06/05 08:57:46;;;;;;;17.63;5.35;;;;;;;33.17;31.23;95072.25;5030556;28;20037;-80
2022/06/05 09:00:35;;;;;;;8.75;3.95;;;;;;;33.07;31.43;95073.72;5012533;28;20041;-80
2022/06/05 09:03:13;;;;;;;14.55;5.40;;;;;;;33.02;32.85;95065.16;4999951;28;20043;-81
2022/06/05 09:05:43;;;;;;;11.32;4.40;;;;;;;33.02;31.91;95065.16;5032172;28;20095;-81
2022/06/05 09:08:14;;;;;;;6.13;2.88;;;;;;;32.98;29.92;95064.34;5030812;28;20030;-81
2022/06/05 09:13:28;;;;;;;7.40;3.13;;;;;;;32.33;32.47;95060.09;5128691;22;20049;-80
2022/06/05 09:16:24;;;;;;;10.93;3.70;;;;;;;32.39;31.81;95060.56;5062769;28;20033;-78
2022/06/05 09:18:50;;;;;;;25.17;4.15;;;;;;;32.41;31.62;95052.91;5053777;28;20045;-80
2022/06/05 09:21:27;;;;;;;9.80;3.30;;;;;;;32.51;31.68;95060.31;5027041;28;20046;-79
2022/06/05 09:24:12;;;;;;;18.73;6.20;;;;;;;32.53;30.84;95055.34;5047259;28;20028;-79
2022/06/05 09:26:45;;;;;;;6.72;2.65;;;;;;;32.51;30.74;95060.31;5045699;28;20080;-80
2022/06/05 09:29:14;;;;;;;7.95;3.00;;;;;;;32.50;29.60;95058.78;5022440;28;20151;-80
2022/06/05 09:32:13;;;;;;;20.35;3.70;;;;;;;32.46;29.49;95053.34;5021710;28;20025;-80
2022/06/05 09:34:47;;;;;;;6.85;2.63;;;;;;;32.49;29.47;95047.22;5038989;28;20120;-79
2022/06/05 09:37:29;;;;;;;8.10;2.95;;;;;;;32.45;30.58;95057.19;5028224;28;20041;-80
2022/06/05 09:40:24;;;;;;;6.22;3.33;;;;;;;32.48;30.35;95058.38;5044733;28;20048;-79
2022/06/05 09:43:03;;;;;;;6.75;3.00;;;;;;;32.46;29.51;95047.19;5056480;28;20036;-79
2022/06/05 09:45:51;;;;;;;13.75;3.00;;;;;;;32.46;29.21;95045.28;5044808;28;20478;-80
2022/06/05 09:48:47;;;;;;;13.02;2.92;;;;;;;32.42;29.54;95043.69;5039617;28;20030;-79
2022/06/05 09:51:22;;;;;;;7.97;2.90;;;;;;;32.37;29.41;95035.91;4990764;28;20506;-80
2022/06/05 09:54:01;;;;;;;11.27;2.83;;;;;;;32.30;30.46;95038.53;4993344;28;20054;-80
2022/06/05 09:58:24;;;;;;;8.93;3.42;;;;;;;32.14;30.81;95039.44;4975922;28;20034;-81
2022/06/05 09:59:52;;;;;;;9.07;3.42;;;;;;;32.00;31.09;95044.63;4993577;28;20565;-80
2022/06/05 10:02:34;;;;;;;9.63;3.28;;;;;;;31.92;30.27;95038.38;4929270;29;20056;-78
2022/06/05 10:05:07;;;;;;;7.97;3.30;;;;;;;31.85;30.32;95026.72;4990727;28;20069;-79
2022/06/05 10:07:34;;;;;;;7.00;3.20;;;;;;;31.78;31.05;95032.03;4950467;28;20580;-79
2022/06/05 10:10:04;;;;;;;14.88;3.53;;;;;;;31.75;31.60;95035.44;4964215;28;20038;-79
2022/06/05 10:12:47;;;;;;;12.65;3.35;;;;;;;31.82;31.15;95032.84;4980196;28;20049;-79
2022/06/05 10:15:40;;;;;;;12.63;3.10;;;;;;;31.80;30.89;95033.22;4981494;28;20048;-79
2022/06/05 10:18:56;;;;;;;12.88;3.03;;;;;;;31.80;30.47;95035.13;4981462;28;20030;-79
2022/06/05 10:21:24;;;;;;;4.97;3.08;;;;;;;31.56;30.39;95026.28;4957246;28;20105;-78
2022/06/05 10:24:04;;;;;;;10.60;3.13;;;;;;;31.47;30.99;95020.38;4962346;28;20113;-78
2022/06/05 10:26:37;;;;;;;5.40;3.10;;;;;;;31.50;31.66;95016.19;4978138;28;20035;-80
2022/06/05 10:29:24;;;;;;;16.90;3.42;;;;;;;31.62;30.90;95014.09;4964094;28;20473;-81
2022/06/05 10:32:02;;;;;;;9.60;4.40;;;;;;;31.71;31.23;95010.34;4997051;28;20069;-79
2022/06/05 10:34:37;;;;;;;6.90;4.30;;;;;;;31.78;30.72;95005.91;4998453;28;20072;-79
2022/06/05 10:37:17;;;;;;;4.63;2.90;;;;;;;31.79;31.35;95007.47;4998176;28;20038;-79
2022/06/05 10:40:07;;;;;;;10.88;3.08;;;;;;;31.76;31.37;95008.19;4980576;28;20046;-79
2022/06/05 10:42:54;;;;;;;9.48;3.22;;;;;;;31.71;31.16;94999.59;4998485;28;20038;-80
2022/06/05 10:45:34;;;;;;;11.88;3.10;;;;;;;31.77;31.18;95003.59;4993783;28;20030;-79
2022/06/05 10:48:41;;;;;;;5.85;3.03;;;;;;;31.76;31.12;94993.97;4992601;28;20168;-79
2022/06/05 10:51:25;;;;;;;16.65;2.90;;;;;;;31.58;31.02;94991.00;4986823;28;20069;-79
2022/06/05 10:53:53;;;;;;;4.88;2.63;;;;;;;31.46;30.43;94988.50;4994678;28;20117;-79
2022/06/05 10:56:23;;;;;;;5.35;2.65;;;;;;;31.35;31.64;94982.94;4977242;28;20038;-79
2022/06/05 10:59:18;;;;;;;5.20;2.70;;;;;;;31.32;31.65;94983.66;4994788;28;20114;-78
2022/06/05 11:02:21;;;;;;;6.20;2.92;;;;;;;31.32;31.84;94994.41;4982254;28;20034;-78
2022/06/05 11:05:21;;;;;;;10.30;3.05;;;;;;;31.36;32.07;94985.28;4996684;28;20026;-79
2022/06/05 11:08:17;;;;;;;17.73;3.40;;;;;;;31.38;31.77;94979.53;4977496;28;20126;-79
2022/06/05 11:14:07;;;;;;;8.65;2.42;;;;;;;31.30;31.96;94981.34;4980087;28;20080;-79
2022/06/05 11:16:39;;;;;;;16.52;3.47;;;;;;;31.32;31.21;94978.28;4994265;28;20117;-79
2022/06/05 11:19:43;;;;;;;10.65;2.75;;;;;;;31.34;31.70;94974.09;4991370;28;20094;-79
2022/06/05 11:22:12;;;;;;;10.48;2.90;;;;;;;31.37;31.92;94977.97;4899090;29;20058;-80
2022/06/05 11:24:52;;;;;;;3.90;1.92;;;;;;;31.20;27.54;94973.88;4945160;28;20052;-80
2022/06/05 11:27:29;;;;;;;9.73;2.00;;;;;;;31.05;28.19;94964.78;4994541;28;20532;-79
2022/06/05 11:30:05;;;;;;;5.85;1.30;;;;;;;30.81;26.63;94975.88;4993881;28;20073;-80
2022/06/05 11:33:04;;;;;;;4.63;1.60;;;;;;;30.54;25.36;94966.91;4976017;28;20096;-80
2022/06/05 11:36:07;;;;;;;4.90;1.50;;;;;;;30.48;27.01;94971.03;4976407;28;20038;-79
2022/06/05 11:38:41;;;;;;;10.80;1.63;;;;;;;30.33;26.04;94978.03;5033111;22;20046;-79
2022/06/05 11:41:22;;;;;;;3.47;1.50;;;;;;;30.24;26.80;94969.41;5002412;28;20030;-80
2022/06/05 11:43:51;;;;;;;7.68;2.08;;;;;;;30.16;27.14;94967.72;5002131;28;20030;-79
2022/06/05 11:46:17;;;;;;;3.58;1.67;;;;;;;30.18;28.48;94965.44;4994377;28;20030;-79
2022/06/05 11:48:45;;;;;;;3.90;2.03;;;;;;;30.26;29.06;94961.78;5002905;28;20041;-80
2022/06/05 11:51:49;;;;;;;5.95;2.40;;;;;;;30.45;30.80;94966.38;5002385;28;20120;-79
2022/06/05 11:54:25;;;;;;;5.95;2.10;;;;;;;30.60;31.22;94960.16;4971740;28;20510;-77
2022/06/05 11:57:06;;;;;;;3.75;1.85;;;;;;;30.67;29.24;94962.97;4990445;23;20157;-77
2022/06/05 11:59:50;;;;;;;6.95;2.10;;;;;;;30.67;29.12;94967.56;5031662;28;20068;-80
2022/06/05 12:02:30;;;;;;;3.90;1.73;;;;;;;30.71;29.76;94952.28;5031531;28;20496;-78
2022/06/05 12:04:58;;;;;;;11.50;2.28;;;;;;;30.73;30.90;94952.72;5013504;28;20029;-79
2022/06/05 12:07:24;;;;;;;5.05;2.00;;;;;;;30.74;30.16;94955.03;5001092;28;20485;-78
2022/06/05 12:09:56;;;;;;;8.70;2.08;;;;;;;30.72;29.98;94956.53;4997323;28;20057;-79
2022/06/05 12:12:24;;;;;;;7.35;2.17;;;;;;;30.69;30.09;94955.34;4997756;28;20025;-78
2022/06/05 12:15:08;;;;;;;3.85;2.05;;;;;;;30.64;30.23;94949.50;5032199;28;20044;-78